createdAt,value
2023-02-01T00:01:13.839Z,100500.63
2023-02-01T00:03:40.608Z,100495.56
2023-02-01T00:06:07.254Z,100495.41
2023-02-01T00:08:33.898Z,100498.94
2023-02-01T00:11:05.498Z,100489.25
2023-02-01T00:13:33.779Z,100484.41
2023-02-01T00:16:05.810Z,100497.75
2023-02-01T00:18:32.581Z,100482.50
2023-02-01T00:20:59.835Z,100486.22
2023-02-01T00:23:26.946Z,100484.91
2023-02-01T00:25:54.346Z,100480.31
2023-02-01T00:28:21.016Z,100478.00
2023-02-01T00:30:47.667Z,100478.97
2023-02-01T00:33:14.355Z,100483.22
2023-02-01T00:35:41.132Z,100476.19
2023-02-01T00:38:07.795Z,100483.22
2023-02-01T00:40:34.459Z,100482.44
2023-02-01T00:43:01.427Z,100465.16
2023-02-01T00:45:28.086Z,100463.09
2023-02-01T00:47:54.816Z,100462.47
2023-02-01T00:50:21.736Z,100455.16
2023-02-01T00:52:48.522Z,100448.75
2023-02-01T00:55:15.475Z,100458.66
2023-02-01T00:57:42.116Z,100448.22
2023-02-01T01:00:09.525Z,100463.00
2023-02-01T01:02:36.323Z,100457.50
2023-02-01T01:05:03.024Z,100441.63
2023-02-01T01:07:29.748Z,100459.34
2023-02-01T01:09:56.455Z,100455.69
2023-02-01T01:12:23.371Z,100477.69
2023-02-01T01:14:50.393Z,100481.34
2023-02-01T01:17:17.221Z,100477.59
2023-02-01T01:19:44.026Z,100474.72
2023-02-01T01:22:10.792Z,100493.41
2023-02-01T01:24:37.724Z,100494.47
2023-02-01T01:27:04.544Z,100488.38
2023-02-01T01:29:31.212Z,100506.28
2023-02-01T01:31:57.944Z,100508.28
2023-02-01T01:34:24.663Z,100504.28
2023-02-01T01:36:51.306Z,100511.59
2023-02-01T01:39:18.005Z,100518.19
2023-02-01T01:41:44.694Z,100505.06
2023-02-01T01:44:48.931Z,100514.94
2023-02-01T01:47:16.959Z,100503.84
2023-02-01T01:49:44.646Z,100503.16
2023-02-01T01:52:12.290Z,100502.91
2023-02-01T01:54:46.029Z,100508.53
2023-02-01T01:57:17.629Z,100501.31
2023-02-01T01:59:49.761Z,100520.34
2023-02-01T02:02:17.095Z,100506.56
2023-02-01T02:04:43.906Z,100506.88
2023-02-01T02:07:19.142Z,100522.84
2023-02-01T02:09:59.533Z,100506.81
2023-02-01T02:12:27.076Z,100501.75
2023-02-01T02:14:54.059Z,100510.88
2023-02-01T02:17:20.759Z,100511.47
2023-02-01T02:20:19.677Z,100513.22
2023-02-01T02:23:37.419Z,100505.91
2023-02-01T02:26:35.278Z,100505.50
2023-02-01T02:29:39.464Z,100498.78
2023-02-01T02:32:27.697Z,100498.00
2023-02-01T02:34:59.227Z,100496.56
2023-02-01T02:37:52.054Z,100488.38
2023-02-01T02:40:38.609Z,100489.09
2023-02-01T02:43:51.388Z,100484.53
2023-02-01T02:46:44.301Z,100489.56
2023-02-01T02:49:26.873Z,100488.00
2023-02-01T02:52:18.153Z,100488.00
2023-02-01T02:54:52.945Z,100480.47
2023-02-01T02:57:49.334Z,100487.84
2023-02-01T03:00:39.027Z,100473.28
2023-02-01T03:03:25.348Z,100468.91
2023-02-01T03:05:52.245Z,100467.25
2023-02-01T03:08:21.575Z,100459.44
2023-02-01T03:11:01.198Z,100464.56
2023-02-01T03:13:50.808Z,100465.50
2023-02-01T03:16:17.487Z,100455.38
2023-02-01T03:18:59.024Z,100445.09
2023-02-01T03:21:30.431Z,100436.22
2023-02-01T03:24:02.729Z,100439.88
2023-02-01T03:26:35.841Z,100424.78
2023-02-01T03:29:33.491Z,100438.25
2023-02-01T03:32:00.594Z,100423.44
2023-02-01T03:34:27.279Z,100423.34
2023-02-01T03:37:07.743Z,100430.94
2023-02-01T03:39:46.501Z,100433.44
2023-02-01T03:42:23.451Z,100427.97
2023-02-01T03:44:56.230Z,100438.06
2023-02-01T03:47:26.848Z,100440.22
2023-02-01T03:50:10.653Z,100449.78
2023-02-01T03:52:51.841Z,100454.38
2023-02-01T03:55:23.874Z,100437.97
2023-02-01T03:58:13.597Z,100436.06
2023-02-01T04:00:41.269Z,100419.03
2023-02-01T04:03:08.409Z,100414.72
2023-02-01T04:05:35.932Z,100391.63
2023-02-01T04:08:02.577Z,100391.81
2023-02-01T04:10:29.469Z,100383.91
2023-02-01T04:12:56.143Z,100383.28
2023-02-01T04:15:22.947Z,100373.97
2023-02-01T04:17:49.684Z,100359.34
2023-02-01T04:20:16.730Z,100342.06
2023-02-01T04:22:43.489Z,100330.28
2023-02-01T04:25:10.421Z,100329.22
2023-02-01T04:27:37.086Z,100321.84
2023-02-01T04:30:05.298Z,100328.44
2023-02-01T04:32:31.979Z,100320.28
2023-02-01T04:34:58.635Z,100312.91
2023-02-01T04:37:25.307Z,100311.28
2023-02-01T04:39:52.139Z,100312.41
2023-02-01T04:42:18.835Z,100297.13
2023-02-01T04:44:45.522Z,100299.72
2023-02-01T04:47:12.210Z,100293.31
2023-02-01T04:49:38.970Z,100286.81
2023-02-01T04:52:05.796Z,100282.28
2023-02-01T04:54:32.470Z,100276.91
2023-02-01T04:56:59.095Z,100264.41
2023-02-01T04:59:26.119Z,100263.56
2023-02-01T05:01:52.790Z,100254.44
2023-02-01T05:04:23.487Z,100263.38
2023-02-01T05:06:50.238Z,100251.94
2023-02-01T05:09:16.873Z,100254.72
2023-02-01T05:12:03.818Z,100245.78
2023-02-01T05:14:30.450Z,100250.13
2023-02-01T05:16:57.196Z,100246.91
2023-02-01T05:19:23.887Z,100240.81
2023-02-01T05:21:50.590Z,100233.34
2023-02-01T05:24:23.175Z,100231.38
2023-02-01T05:26:50.451Z,100234.22
2023-02-01T05:29:18.380Z,100230.81
2023-02-01T05:31:46.981Z,100234.03
2023-02-01T05:34:14.646Z,100220.47
2023-02-01T05:36:41.744Z,100222.13
2023-02-01T05:39:08.372Z,100209.72
2023-02-01T05:41:35.840Z,100214.84
2023-02-01T05:44:02.710Z,100223.94
2023-02-01T05:46:29.436Z,100231.94
2023-02-01T05:48:56.102Z,100221.06
2023-02-01T05:51:22.776Z,100228.28
2023-02-01T05:53:49.458Z,100222.81
2023-02-01T05:56:16.257Z,100227.34
2023-02-01T05:58:42.900Z,100211.28
2023-02-01T06:01:09.563Z,100211.28
2023-02-01T06:03:36.589Z,100218.50
2023-02-01T06:06:03.640Z,100213.00
2023-02-01T06:08:30.359Z,100211.63
2023-02-01T06:11:05.732Z,100217.78
2023-02-01T06:13:34.561Z,100209.91
2023-02-01T06:16:03.587Z,100205.59
2023-02-01T06:18:31.607Z,100211.59
2023-02-01T06:21:02.785Z,100195.88
2023-02-01T06:23:30.724Z,100210.56
2023-02-01T06:26:03.254Z,100203.34
2023-02-01T06:28:31.419Z,100200.34
2023-02-01T06:30:59.014Z,100192.09
2023-02-01T06:33:26.772Z,100194.69
2023-02-01T06:36:00.820Z,100194.69
2023-02-01T06:38:32.156Z,100199.09
2023-02-01T06:40:59.254Z,100185.94
2023-02-01T06:43:27.675Z,100183.84
2023-02-01T06:46:00.174Z,100182.19
2023-02-01T06:48:26.848Z,100180.41
2023-02-01T06:50:53.587Z,100176.56
2023-02-01T06:53:20.358Z,100181.47
2023-02-01T06:55:54.214Z,100177.94
2023-02-01T06:58:21.963Z,100170.53
2023-02-01T07:00:49.400Z,100172.09
2023-02-01T07:03:16.085Z,100164.00
2023-02-01T07:05:42.766Z,100171.72
2023-02-01T07:08:09.406Z,100171.13
2023-02-01T07:10:36.208Z,100166.63
2023-02-01T07:13:02.937Z,100167.81
2023-02-01T07:15:29.864Z,100162.34
2023-02-01T07:17:56.754Z,100172.34
2023-02-01T07:20:24.500Z,100169.66
2023-02-01T07:22:57.803Z,100156.22
2023-02-01T07:25:25.273Z,100161.03
2023-02-01T07:27:52.146Z,100159.13
2023-02-01T07:30:19.052Z,100156.06
2023-02-01T07:32:45.728Z,100162.28
2023-02-01T07:35:12.390Z,100142.41
2023-02-01T07:37:39.095Z,100160.09
2023-02-01T07:40:06.465Z,100159.81
2023-02-01T07:42:33.119Z,100160.50
2023-02-01T07:45:19.971Z,100166.47
2023-02-01T07:47:47.899Z,100167.13
2023-02-01T07:50:14.549Z,100163.41
2023-02-01T07:52:41.753Z,100170.13
2023-02-01T07:55:08.937Z,100186.78
2023-02-01T07:57:35.567Z,100175.13
2023-02-01T08:00:21.219Z,100180.53
2023-02-01T08:02:48.061Z,100181.22
2023-02-01T08:05:14.705Z,100192.84
2023-02-01T08:07:41.309Z,100192.19
2023-02-01T08:10:11.706Z,100209.84
2023-02-01T08:12:38.715Z,100193.19
2023-02-01T08:15:06.159Z,100193.28
2023-02-01T08:17:32.805Z,100220.38
2023-02-01T08:19:59.430Z,100206.84
2023-02-01T08:22:26.295Z,100215.75
2023-02-01T08:25:02.173Z,100222.03
2023-02-01T08:27:29.179Z,100225.41
2023-02-01T08:29:55.951Z,100231.69
2023-02-01T08:32:22.672Z,100228.72
2023-02-01T08:34:49.331Z,100240.66
2023-02-01T08:37:15.996Z,100248.78
2023-02-01T08:39:46.775Z,100252.06
2023-02-01T08:42:32.909Z,100256.16
2023-02-01T08:44:59.537Z,100250.94
2023-02-01T08:47:26.224Z,100236.69
2023-02-01T08:49:54.262Z,100242.00
2023-02-01T08:52:21.641Z,100245.66
2023-02-01T08:54:48.601Z,100249.91
2023-02-01T08:57:15.819Z,100264.25
2023-02-01T08:59:44.433Z,100274.50
2023-02-01T09:02:18.389Z,100288.94
2023-02-01T09:04:45.053Z,100304.03
2023-02-01T09:07:12.135Z,100298.38
2023-02-01T09:09:39.511Z,100296.94
2023-02-01T09:12:06.612Z,100295.09
2023-02-01T09:14:33.278Z,100294.25
2023-02-01T09:16:59.929Z,100305.22
2023-02-01T09:19:27.344Z,100308.59
2023-02-01T09:21:54.627Z,100304.63
2023-02-01T09:24:21.496Z,100312.06
2023-02-01T09:26:48.790Z,100305.31
2023-02-01T09:29:15.929Z,100299.16
2023-02-01T09:31:49.895Z,100306.28
2023-02-01T09:34:20.267Z,100315.72
2023-02-01T09:36:46.840Z,100314.75
2023-02-01T09:39:13.691Z,100319.28
2023-02-01T09:42:03.535Z,100337.00
2023-02-01T09:45:11.172Z,100323.41
2023-02-01T09:47:47.036Z,100321.41
2023-02-01T09:50:34.501Z,100332.94
2023-02-01T09:53:07.067Z,100316.47
2023-02-01T09:55:39.498Z,100320.59
2023-02-01T09:58:18.750Z,100338.66
2023-02-01T10:00:53.686Z,100332.66
2023-02-01T10:03:21.671Z,100327.66
2023-02-01T10:06:42.111Z,100324.25
2023-02-01T10:09:31.810Z,100339.00
2023-02-01T10:12:10.691Z,100324.03
2023-02-01T10:14:57.995Z,100333.88
2023-02-01T10:17:42.691Z,100332.25
2023-02-01T10:20:30.999Z,100316.53
2023-02-01T10:23:32.806Z,100314.59
2023-02-01T10:26:18.897Z,100317.06
2023-02-01T10:28:49.888Z,100329.59
2023-02-01T10:31:18.239Z,100323.34
2023-02-01T10:33:56.532Z,100328.66
2023-02-01T10:36:31.473Z,100336.63
2023-02-01T10:39:00.393Z,100327.47
2023-02-01T10:41:33.942Z,100336.75
2023-02-01T10:44:04.479Z,100330.53
2023-02-01T10:46:32.761Z,100337.72
2023-02-01T10:49:03.269Z,100326.34
2023-02-01T10:51:45.287Z,100331.75
2023-02-01T10:54:32.313Z,100343.72
2023-02-01T10:57:00.526Z,100341.88
2023-02-01T10:59:31.403Z,100354.03
2023-02-01T11:02:03.539Z,100347.66
2023-02-01T11:04:36.031Z,100354.22
2023-02-01T11:07:24.521Z,100344.09
2023-02-01T11:09:57.319Z,100344.75
2023-02-01T11:12:38.137Z,100329.75
2023-02-01T11:15:24.604Z,100338.50
2023-02-01T11:17:53.756Z,100325.91
2023-02-01T11:20:32.665Z,100316.41
2023-02-01T11:22:59.604Z,100305.59
2023-02-01T11:25:27.070Z,100298.47
2023-02-01T11:27:56.996Z,100291.50
2023-02-01T11:30:36.058Z,100278.31
2023-02-01T11:33:06.764Z,100276.03
2023-02-01T11:35:39.071Z,100278.88
2023-02-01T11:38:14.931Z,100256.78
2023-02-01T11:40:41.565Z,100261.03
2023-02-01T11:43:16.647Z,100252.66
2023-02-01T11:45:55.493Z,100241.66
2023-02-01T11:48:27.268Z,100240.34
2023-02-01T11:50:54.118Z,100248.66
2023-02-01T11:53:27.483Z,100247.44
2023-02-01T11:56:18.884Z,100246.31
2023-02-01T11:59:11.929Z,100258.66
2023-02-01T12:01:48.252Z,100283.94
2023-02-01T12:04:39.521Z,100304.69
2023-02-01T12:07:15.216Z,100297.16
2023-02-01T12:09:50.971Z,100294.34
2023-02-01T12:12:17.555Z,100307.38
2023-02-01T12:14:57.817Z,100267.00
2023-02-01T12:18:05.931Z,100276.72
2023-02-01T12:20:53.627Z,100263.69
2023-02-01T12:23:51.709Z,100251.00
2023-02-01T12:26:45.897Z,100250.63
2023-02-01T12:29:43.576Z,100240.34
2023-02-01T12:32:49.580Z,100245.31
2023-02-01T12:35:50.411Z,100229.72
2023-02-01T12:38:41.503Z,100235.00
2023-02-01T12:41:17.297Z,100226.97
2023-02-01T12:43:52.437Z,100222.94
2023-02-01T12:46:34.709Z,100220.81
2023-02-01T12:49:11.597Z,100222.16
2023-02-01T12:51:41.121Z,100222.91
2023-02-01T12:54:13.384Z,100221.75
2023-02-01T12:56:47.236Z,100212.91
2023-02-01T12:59:45.702Z,100227.53
2023-02-01T13:02:19.899Z,100228.69
2023-02-01T13:05:04.208Z,100208.09
2023-02-01T13:07:42.542Z,100214.06
2023-02-01T13:10:33.104Z,100210.50
2023-02-01T13:13:12.018Z,100203.41
2023-02-01T13:15:56.963Z,100206.72
2023-02-01T13:18:27.557Z,100229.84
2023-02-01T13:21:08.208Z,100240.13
2023-02-01T13:23:41.037Z,100228.50
2023-02-01T13:26:08.732Z,100235.69
2023-02-01T13:28:58.294Z,100209.66
2023-02-01T13:31:40.367Z,100205.63
2023-02-01T13:34:38.814Z,100201.16
2023-02-01T13:37:19.758Z,100194.72
2023-02-01T13:39:56.400Z,100192.53
2023-02-01T13:43:21.870Z,100199.25
2023-02-01T13:45:52.818Z,100194.44
2023-02-01T13:48:31.540Z,100192.31
2023-02-01T13:51:00.077Z,100196.16
2023-02-01T13:53:34.900Z,100176.91
2023-02-01T13:56:08.160Z,100191.22
2023-02-01T13:58:39.956Z,100202.09
2023-02-01T14:01:21.903Z,100199.91
2023-02-01T14:03:50.995Z,100206.06
2023-02-01T14:06:28.402Z,100202.09
2023-02-01T14:09:12.537Z,100204.31
2023-02-01T14:11:54.744Z,100201.53
2023-02-01T14:14:24.509Z,100205.97
2023-02-01T14:16:54.106Z,100199.41
2023-02-01T14:19:28.304Z,100204.41
2023-02-01T14:22:02.222Z,100207.22
2023-02-01T14:24:30.975Z,100207.03
2023-02-01T14:27:03.447Z,100220.97
2023-02-01T14:29:36.401Z,100225.97
2023-02-01T14:32:18.256Z,100226.19
2023-02-01T14:34:47.980Z,100218.47
2023-02-01T14:37:17.632Z,100229.84
2023-02-01T14:39:54.331Z,100231.16
2023-02-01T14:42:42.196Z,100244.28
2023-02-01T14:45:23.196Z,100262.56
2023-02-01T14:48:16.447Z,100261.63
2023-02-01T14:50:48.987Z,100262.38
2023-02-01T14:53:24.656Z,100259.56
2023-02-01T14:56:04.028Z,100265.47
2023-02-01T14:58:41.023Z,100277.59
2023-02-01T15:01:31.672Z,100280.09
2023-02-01T15:04:11.340Z,100289.31
2023-02-01T15:06:41.349Z,100291.06
2023-02-01T15:09:35.561Z,100284.78
2023-02-01T15:12:05.357Z,100288.56
2023-02-01T15:14:36.535Z,100279.13
2023-02-01T15:17:16.452Z,100307.88
2023-02-01T15:20:04.830Z,100288.06
2023-02-01T15:22:35.637Z,100291.34
2023-02-01T15:25:04.219Z,100299.03
2023-02-01T15:27:33.393Z,100297.22
2023-02-01T15:30:18.749Z,100295.19
2023-02-01T15:32:45.605Z,100296.91
2023-02-01T15:35:37.302Z,100306.84
2023-02-01T15:38:43.669Z,100303.09
2023-02-01T15:41:29.562Z,100284.78
2023-02-01T15:43:56.259Z,100297.81
2023-02-01T15:46:44.229Z,100303.97
2023-02-01T15:49:38.393Z,100295.31
2023-02-01T15:52:23.551Z,100299.63
2023-02-01T15:54:55.103Z,100305.59
2023-02-01T15:57:31.791Z,100304.47
2023-02-01T16:00:21.599Z,100303.19
2023-02-01T16:02:57.915Z,100311.00
2023-02-01T16:05:45.699Z,100325.72
2023-02-01T16:08:17.115Z,100316.41
2023-02-01T16:10:49.405Z,100324.09
2023-02-01T16:13:17.499Z,100345.16
2023-02-01T16:15:44.774Z,100333.81
2023-02-01T16:18:13.597Z,100353.66
2023-02-01T16:20:42.398Z,100359.81
2023-02-01T16:23:10.597Z,100364.44
2023-02-01T16:25:38.647Z,100377.91
2023-02-01T16:28:06.433Z,100389.78
2023-02-01T16:30:33.750Z,100396.38
2023-02-01T16:33:06.395Z,100403.50
2023-02-01T16:35:39.022Z,100400.91
2023-02-01T16:38:14.054Z,100403.91
2023-02-01T16:40:42.491Z,100409.03
2023-02-01T16:43:29.689Z,100406.34
2023-02-01T16:46:01.451Z,100416.63
2023-02-01T16:48:35.441Z,100416.94
2023-02-01T16:51:09.661Z,100424.13
2023-02-01T16:53:48.304Z,100426.06
2023-02-01T16:56:26.662Z,100420.47
2023-02-01T16:58:55.332Z,100422.63
2023-02-01T17:01:25.611Z,100417.41
2023-02-01T17:03:53.020Z,100432.63
2023-02-01T17:06:22.797Z,100446.28
2023-02-01T17:08:55.309Z,100446.09
2023-02-01T17:11:22.303Z,100431.84
2023-02-01T17:13:49.113Z,100444.56
2023-02-01T17:16:23.850Z,100460.06
2023-02-01T17:18:57.123Z,100453.03
2023-02-01T17:21:25.756Z,100466.44
2023-02-01T17:23:53.724Z,100472.78
2023-02-01T17:26:20.784Z,100476.88
2023-02-01T17:28:47.844Z,100472.63
2023-02-01T17:31:16.546Z,100498.22
2023-02-01T17:33:45.067Z,100469.91
2023-02-01T17:36:17.351Z,100488.94
2023-02-01T17:38:50.918Z,100489.38
2023-02-01T17:41:20.338Z,100490.34
2023-02-01T17:43:47.221Z,100486.03
2023-02-01T17:46:16.906Z,100486.34
2023-02-01T17:48:43.780Z,100485.56
2023-02-01T17:51:19.985Z,100493.19
2023-02-01T17:53:47.452Z,100475.66
2023-02-01T17:56:22.933Z,100465.84
2023-02-01T17:58:50.212Z,100461.72
2023-02-01T18:01:22.719Z,100461.63
2023-02-01T18:03:49.597Z,100451.63
2023-02-01T18:06:18.747Z,100453.44
2023-02-01T18:08:46.300Z,100447.59
2023-02-01T18:11:15.576Z,100461.34
2023-02-01T18:13:42.982Z,100479.34
2023-02-01T18:16:25.110Z,100458.66
2023-02-01T18:18:52.372Z,100453.72
2023-02-01T18:21:21.432Z,100446.88
2023-02-01T18:23:48.725Z,100466.44
2023-02-01T18:26:18.376Z,100470.25
2023-02-01T18:28:45.346Z,100460.34
2023-02-01T18:31:32.882Z,100458.72
2023-02-01T18:34:00.912Z,100461.06
2023-02-01T18:36:30.440Z,100467.69
2023-02-01T18:38:57.781Z,100476.75
2023-02-01T18:41:25.456Z,100460.66
2023-02-01T18:43:52.904Z,100468.03
2023-02-01T18:46:21.928Z,100466.75
2023-02-01T18:48:48.994Z,100473.28
2023-02-01T18:51:20.591Z,100469.06
2023-02-01T18:53:48.687Z,100474.19
2023-02-01T18:56:18.197Z,100476.28
2023-02-01T18:58:45.546Z,100462.47
2023-02-01T19:01:18.751Z,100485.91
2023-02-01T19:03:48.227Z,100482.38
2023-02-01T19:06:18.057Z,100481.13
2023-02-01T19:08:46.028Z,100486.09
2023-02-01T19:11:13.541Z,100482.78
2023-02-01T19:13:40.774Z,100481.94
2023-02-01T19:16:09.237Z,100491.38
2023-02-01T19:18:38.058Z,100490.78
2023-02-01T19:21:07.586Z,100489.72
2023-02-01T19:23:34.353Z,100485.84
2023-02-01T19:26:01.381Z,100509.44
2023-02-01T19:28:28.056Z,100501.81
2023-02-01T19:31:03.067Z,100511.56
2023-02-01T19:33:29.882Z,100502.97
2023-02-01T19:36:05.920Z,100501.22
2023-02-01T19:38:33.755Z,100495.06
2023-02-01T19:41:00.750Z,100505.53
2023-02-01T19:43:27.796Z,100495.50
2023-02-01T19:45:55.005Z,100506.94
2023-02-01T19:48:21.788Z,100511.94
2023-02-01T19:50:48.790Z,100480.22
2023-02-01T19:53:15.499Z,100496.03
2023-02-01T19:55:48.098Z,100485.25
2023-02-01T19:58:14.824Z,100488.47
2023-02-01T20:00:41.133Z,100486.44
2023-02-01T20:03:07.946Z,100485.25
2023-02-01T20:05:34.756Z,100499.22
2023-02-01T20:08:01.874Z,100475.66
2023-02-01T20:10:28.838Z,100479.38
2023-02-01T20:12:55.466Z,100485.28
2023-02-01T20:15:24.748Z,100488.94
2023-02-01T20:17:51.824Z,100490.50
2023-02-01T20:20:18.716Z,100475.28
2023-02-01T20:22:45.450Z,100496.31
2023-02-01T20:25:12.174Z,100489.19
2023-02-01T20:27:39.880Z,100481.75
2023-02-01T20:30:07.170Z,100495.41
2023-02-01T20:32:33.903Z,100491.59
2023-02-01T20:35:00.584Z,100493.06
2023-02-01T20:37:27.308Z,100511.75
2023-02-01T20:39:54.493Z,100511.88
2023-02-01T20:42:21.201Z,100501.94
2023-02-01T20:44:47.891Z,100516.97
2023-02-01T20:47:14.587Z,100522.16
2023-02-01T20:49:41.229Z,100506.88
2023-02-01T20:52:07.927Z,100518.31
2023-02-01T20:54:34.655Z,100517.38
2023-02-01T20:57:01.522Z,100513.91
2023-02-01T20:59:28.324Z,100530.19
2023-02-01T21:01:54.979Z,100524.97
2023-02-01T21:04:27.289Z,100522.53
2023-02-01T21:06:55.181Z,100539.50
2023-02-01T21:09:22.737Z,100533.06
2023-02-01T21:11:49.614Z,100547.59
2023-02-01T21:14:16.633Z,100545.84
2023-02-01T21:16:43.946Z,100560.88
2023-02-01T21:19:10.850Z,100564.47
2023-02-01T21:21:37.680Z,100569.56
2023-02-01T21:24:05.429Z,100566.88
2023-02-01T21:26:41.162Z,100550.69
2023-02-01T21:29:13.442Z,100565.84
2023-02-01T21:31:41.816Z,100558.41
2023-02-01T21:34:09.462Z,100565.06
2023-02-01T21:36:36.208Z,100570.53
2023-02-01T21:39:06.077Z,100571.41
2023-02-01T21:41:53.437Z,100576.03
2023-02-01T21:44:20.147Z,100587.59
2023-02-01T21:46:47.283Z,100597.50
2023-02-01T21:49:14.066Z,100583.38
2023-02-01T21:51:41.617Z,100593.03
2023-02-01T21:54:10.026Z,100594.66
2023-02-01T21:56:37.782Z,100610.34
2023-02-01T21:59:05.443Z,100599.88
2023-02-01T22:01:32.870Z,100606.34
2023-02-01T22:03:59.586Z,100615.22
2023-02-01T22:06:34.975Z,100612.78
2023-02-01T22:09:02.248Z,100608.34
2023-02-01T22:11:29.614Z,100624.50
2023-02-01T22:13:56.325Z,100629.13
2023-02-01T22:16:23.718Z,100640.09
2023-02-01T22:18:52.093Z,100627.69
2023-02-01T22:21:19.730Z,100651.06
2023-02-01T22:23:54.457Z,100640.28
2023-02-01T22:26:22.589Z,100641.06
2023-02-01T22:28:49.843Z,100637.59
2023-02-01T22:31:17.685Z,100643.75
2023-02-01T22:33:46.748Z,100647.41
2023-02-01T22:36:17.213Z,100639.25
2023-02-01T22:38:45.194Z,100674.38
2023-02-01T22:41:11.960Z,100667.84
2023-02-01T22:43:38.778Z,100649.16
2023-02-01T22:46:08.521Z,100655.44
2023-02-01T22:48:37.343Z,100677.97
2023-02-01T22:51:05.165Z,100673.25
2023-02-01T22:53:32.307Z,100674.31
2023-02-01T22:56:06.665Z,100676.22
2023-02-01T22:58:37.095Z,100675.63
2023-02-01T23:01:11.888Z,100688.16
2023-02-01T23:03:39.477Z,100687.19
2023-02-01T23:06:07.612Z,100683.59
2023-02-01T23:08:35.443Z,100694.91
2023-02-01T23:11:11.510Z,100696.59
2023-02-01T23:13:41.489Z,100708.31
2023-02-01T23:16:10.807Z,100703.78
2023-02-01T23:18:37.559Z,100710.50
2023-02-01T23:21:06.846Z,100704.47
2023-02-01T23:23:33.757Z,100714.03
2023-02-01T23:26:00.959Z,100718.88
2023-02-01T23:28:28.512Z,100717.59
2023-02-01T23:30:55.275Z,100734.38
2023-02-01T23:33:26.701Z,100727.88
2023-02-01T23:36:01.733Z,100738.03
2023-02-01T23:38:29.424Z,100734.00
2023-02-01T23:41:05.401Z,100733.66
2023-02-01T23:43:51.640Z,100743.91
2023-02-01T23:46:19.667Z,100753.47
2023-02-01T23:48:48.148Z,100753.75
2023-02-01T23:51:15.624Z,100756.44
2023-02-01T23:53:42.546Z,100756.16
2023-02-01T23:56:36.569Z,100755.44
2023-02-01T23:59:06.021Z,100764.69
